Time;durP1;ratioP1;P1;durP2;ratioP2;P2;SDS_P1;SDS_P2;PMS_P1;PMS_P2;Temp;Humidity;BMP_temperature;BMP_pressure;BME280_temperature;BME280_humidity;BME280_pressure;Samples;Min_cycle;Max_cycle;Signal;HPM_P1;HPM_P2
2022/12/11 00:05:03;;;;;;;0.20;0.10;;;6.40;99.90;;;;;;20942702;28;20443;-76
2022/12/11 00:15:09;;;;;;;0.20;0.10;;;6.30;99.90;;;;;;20945121;28;21083;-75
2022/12/11 00:25:13;;;;;;;0.20;0.10;;;6.30;99.90;;;;;;20939097;28;20406;-75
2022/12/11 00:35:19;;;;;;;0.20;0.10;;;6.40;99.90;;;;;;20957400;28;20413;-74
2022/12/11 00:45:22;;;;;;;0.20;0.10;;;6.20;99.90;;;;;;20935975;28;20445;-74
2022/12/11 00:55:28;;;;;;;0.20;0.10;;;6.20;99.90;;;;;;20938168;28;20453;-74
2022/12/11 01:05:32;;;;;;;0.20;0.10;;;6.20;99.90;;;;;;20938941;28;20775;-75
2022/12/11 01:15:41;;;;;;;0.20;0.10;;;6.10;99.90;;;;;;20943049;28;21299;-75
2022/12/11 01:25:45;;;;;;;0.20;0.10;;;6.10;99.90;;;;;;20941577;28;20426;-74
2022/12/11 01:35:50;;;;;;;0.20;0.10;;;6.10;99.90;;;;;;20940386;28;20422;-74
2022/12/11 01:45:54;;;;;;;0.20;0.10;;;6.20;99.90;;;;;;20941533;28;20414;-74
2022/12/11 01:55:59;;;;;;;0.20;0.10;;;6.20;99.90;;;;;;20939823;28;20530;-75
2022/12/11 02:06:04;;;;;;;0.20;0.10;;;6.40;99.90;;;;;;20937979;28;20447;-75
2022/12/11 02:16:18;;;;;;;0.20;0.10;;;6.50;99.90;;;;;;20935973;28;20465;-74
2022/12/11 02:26:38;;;;;;;0.20;0.10;;;6.30;99.90;;;;;;20943623;28;20908;-74
2022/12/11 02:36:46;;;;;;;0.20;0.10;;;6.30;99.90;;;;;;20951852;28;20927;-76
2022/12/11 02:46:52;;;;;;;0.20;0.10;;;6.20;99.90;;;;;;20953986;28;20422;-74
2022/12/11 02:57:06;;;;;;;0.20;0.10;;;6.10;99.90;;;;;;20948866;28;21670;-74
2022/12/11 03:07:14;;;;;;;0.20;0.10;;;6.20;99.90;;;;;;20952603;28;20458;-74
2022/12/11 03:17:22;;;;;;;0.20;0.10;;;6.30;99.90;;;;;;20952422;28;20406;-74
2022/12/11 03:27:32;;;;;;;0.20;0.10;;;6.20;99.90;;;;;;20947412;28;20406;-75
2022/12/11 03:37:40;;;;;;;0.20;0.10;;;6.20;99.90;;;;;;20950038;28;20935;-76
2022/12/11 03:47:46;;;;;;;0.20;0.10;;;6.30;99.90;;;;;;20947482;28;20912;-77
2022/12/11 03:57:51;;;;;;;0.20;0.10;;;6.30;99.90;;;;;;20946983;28;20402;-76
2022/12/11 04:07:55;;;;;;;0.20;0.10;;;6.40;99.90;;;;;;20949847;28;20401;-75
2022/12/11 04:28:22;;;;;;;0.20;0.10;;;6.30;99.90;;;;;;20945897;28;20757;-74
2022/12/11 04:38:28;;;;;;;0.20;0.10;;;6.40;99.90;;;;;;20946207;28;20436;-77
2022/12/11 04:48:31;;;;;;;0.20;0.10;;;6.60;99.90;;;;;;20943003;28;20405;-76
2022/12/11 04:58:37;;;;;;;0.20;0.10;;;6.60;99.90;;;;;;20942904;28;20904;-76
2022/12/11 05:08:44;;;;;;;0.20;0.10;;;6.50;99.90;;;;;;20944252;28;20414;-76
2022/12/11 05:18:49;;;;;;;0.20;0.10;;;6.50;99.90;;;;;;20940686;28;20417;-74
2022/12/11 05:28:53;;;;;;;0.20;0.10;;;6.60;99.90;;;;;;20942948;28;20971;-74
2022/12/11 05:39:00;;;;;;;0.20;0.10;;;6.70;99.90;;;;;;20940000;28;20412;-75
2022/12/11 05:49:04;;;;;;;0.20;0.10;;;6.70;99.90;;;;;;20940670;28;20413;-76
2022/12/11 05:59:09;;;;;;;0.20;0.10;;;6.70;99.90;;;;;;20943838;28;20402;-75
2022/12/11 06:09:15;;;;;;;0.20;0.10;;;6.90;99.90;;;;;;20955279;28;20410;-76
2022/12/11 06:19:21;;;;;;;0.20;0.10;;;6.90;99.90;;;;;;20956241;28;20425;-74
2022/12/11 06:29:25;;;;;;;0.20;0.10;;;7.00;99.90;;;;;;20954464;28;20435;-75
2022/12/11 06:39:30;;;;;;;0.20;0.10;;;6.90;99.90;;;;;;20953204;28;20731;-74
2022/12/11 06:49:34;;;;;;;0.20;0.10;;;6.80;99.90;;;;;;20953414;28;20401;-73
2022/12/11 06:59:39;;;;;;;0.20;0.10;;;6.70;99.90;;;;;;20952518;28;20422;-74
2022/12/11 07:09:44;;;;;;;0.20;0.10;;;6.80;99.90;;;;;;20949708;28;20405;-74
2022/12/11 07:19:49;;;;;;;0.20;0.10;;;6.90;99.90;;;;;;20950976;28;20418;-74
2022/12/11 07:29:54;;;;;;;0.20;0.10;;;6.90;99.90;;;;;;20946836;28;20394;-74
2022/12/11 07:39:59;;;;;;;0.20;0.10;;;6.90;99.90;;;;;;20950002;28;21300;-76
2022/12/11 07:50:03;;;;;;;0.20;0.10;;;7.10;99.90;;;;;;20947945;28;20480;-75
2022/12/11 08:00:10;;;;;;;0.20;0.10;;;7.00;99.90;;;;;;20947309;28;20421;-74
2022/12/11 08:10:14;;;;;;;0.20;0.10;;;7.30;99.90;;;;;;20946359;28;20788;-75
2022/12/11 08:20:19;;;;;;;0.20;0.10;;;7.40;99.90;;;;;;20944412;28;20414;-76
2022/12/11 08:30:23;;;;;;;0.20;0.10;;;7.70;99.90;;;;;;20925309;28;20396;-78
2022/12/11 08:40:28;;;;;;;0.20;0.10;;;8.00;99.90;;;;;;20942839;28;20402;-77
2022/12/11 08:50:32;;;;;;;0.20;0.10;;;8.20;99.90;;;;;;20924907;28;20473;-76
2022/12/11 09:00:37;;;;;;;0.20;0.10;;;8.30;99.90;;;;;;20941140;28;20440;-77
2022/12/11 09:10:41;;;;;;;0.20;0.10;;;8.50;99.90;;;;;;20939683;28;21284;-78
2022/12/11 09:20:47;;;;;;;0.20;0.10;;;8.60;99.90;;;;;;20939654;28;20884;-77
2022/12/11 09:30:51;;;;;;;0.20;0.00;;;8.70;99.90;;;;;;20941992;28;20922;-75
2022/12/11 09:40:57;;;;;;;0.20;0.10;;;8.90;99.90;;;;;;20936788;28;20500;-76
2022/12/11 09:51:06;;;;;;;0.20;0.10;;;8.90;99.90;;;;;;20921089;28;20405;-77
2022/12/11 10:01:22;;;;;;;0.20;0.10;;;8.70;99.90;;;;;;20942690;28;20924;-79
2022/12/11 10:11:50;;;;;;;0.20;0.10;;;8.60;99.90;;;;;;20935767;28;20414;-74
2022/12/11 10:22:02;;;;;;;0.20;0.10;;;8.80;99.90;;;;;;20939604;28;20402;-74
2022/12/11 10:32:15;;;;;;;0.20;0.10;;;9.00;99.90;;;;;;20930597;28;20402;-75
2022/12/11 10:42:23;;;;;;;0.20;0.10;;;9.30;99.90;;;;;;20930512;28;20436;-78
2022/12/11 10:52:30;;;;;;;0.20;0.10;;;9.70;99.90;;;;;;20952391;28;20469;-74
2022/12/11 11:02:39;;;;;;;0.20;0.10;;;10.40;99.90;;;;;;20930628;28;20486;-68
2022/12/11 11:12:45;;;;;;;0.20;0.10;;;11.30;99.90;;;;;;20949121;28;20410;-75
2022/12/11 11:22:53;;;;;;;0.20;0.10;;;12.20;99.90;;;;;;20949856;28;20759;-71
2022/12/11 11:33:01;;;;;;;0.20;0.10;;;12.20;99.90;;;;;;20947859;28;20415;-74
2022/12/11 11:43:17;;;;;;;0.20;0.10;;;12.40;99.90;;;;;;20875975;28;20418;-75
2022/12/11 11:53:27;;;;;;;0.20;0.10;;;13.40;99.90;;;;;;20864473;28;20407;-77
2022/12/11 12:03:32;;;;;;;0.20;0.10;;;13.70;99.90;;;;;;20889190;28;20441;-76
2022/12/11 12:13:46;;;;;;;0.20;0.10;;;13.50;99.90;;;;;;20939597;28;20394;-77
2022/12/11 12:24:08;;;;;;;0.20;0.10;;;13.30;99.90;;;;;;20940778;28;20506;-75
2022/12/11 12:34:24;;;;;;;0.20;0.10;;;13.40;99.90;;;;;;20939803;28;20405;-75
2022/12/11 12:44:35;;;;;;;0.20;0.10;;;13.10;99.90;;;;;;20941248;28;20902;-77
2022/12/11 12:54:40;;;;;;;0.20;0.10;;;12.90;99.90;;;;;;20940776;28;20407;-75
2022/12/11 13:04:58;;;;;;;0.20;0.10;;;12.70;99.90;;;;;;20934936;28;20438;-75
2022/12/11 13:15:02;;;;;;;0.20;0.10;;;13.20;99.90;;;;;;20935061;28;20398;-75
2022/12/11 13:25:22;;;;;;;0.20;0.10;;;12.60;99.90;;;;;;20939054;28;20418;-73
2022/12/11 13:35:26;;;;;;;0.20;0.10;;;12.20;99.90;;;;;;20939377;28;20405;-72
2022/12/11 13:45:37;;;;;;;0.20;0.10;;;11.70;99.90;;;;;;20937438;28;20501;-70
2022/12/11 13:55:42;;;;;;;0.20;0.10;;;11.80;99.90;;;;;;20938057;28;20398;-72
2022/12/11 14:05:48;;;;;;;0.20;0.00;;;12.00;99.90;;;;;;20935698;28;20517;-72
2022/12/11 14:15:54;;;;;;;0.20;0.10;;;12.00;99.90;;;;;;20937477;28;20413;-75
2022/12/11 14:26:03;;;;;;;0.20;0.10;;;11.80;99.90;;;;;;20946195;28;20410;-73
2022/12/11 14:36:09;;;;;;;0.20;0.10;;;11.50;99.90;;;;;;20947528;28;20729;-73
2022/12/11 14:46:18;;;;;;;0.20;0.10;;;11.60;99.90;;;;;;20944923;28;20765;-75
2022/12/11 14:56:27;;;;;;;0.20;0.10;;;11.50;99.90;;;;;;20923033;28;20825;-74
2022/12/11 15:06:35;;;;;;;0.20;0.10;;;11.60;99.90;;;;;;20934120;28;20418;-73
2022/12/11 15:16:42;;;;;;;0.20;0.10;;;11.50;99.90;;;;;;20951967;28;20429;-75
2022/12/11 15:26:48;;;;;;;0.20;0.00;;;11.60;99.90;;;;;;20947811;28;20497;-67
2022/12/11 15:36:52;;;;;;;0.20;0.10;;;11.60;99.90;;;;;;20925278;28;20398;-73
2022/12/11 15:46:57;;;;;;;0.20;0.10;;;11.70;99.90;;;;;;20940686;28;20402;-74
2022/12/11 15:57:04;;;;;;;0.20;0.10;;;11.60;99.90;;;;;;20941989;28;20858;-74
2022/12/11 16:07:16;;;;;;;0.20;0.10;;;11.60;99.90;;;;;;20939278;28;20409;-73
2022/12/11 16:17:20;;;;;;;0.20;0.03;;;11.20;99.90;;;;;;20939485;28;20418;-70
2022/12/11 16:27:26;;;;;;;0.20;0.00;;;11.10;99.90;;;;;;20939261;28;20421;-74
2022/12/11 16:37:29;;;;;;;0.20;0.10;;;11.00;99.90;;;;;;20937585;28;20896;-73
2022/12/11 16:47:35;;;;;;;0.20;0.00;;;10.90;99.90;;;;;;20933869;28;20743;-73
2022/12/11 16:57:39;;;;;;;0.20;0.10;;;10.90;99.90;;;;;;20935839;28;20421;-73
2022/12/11 17:07:44;;;;;;;0.20;0.10;;;11.00;99.90;;;;;;20936140;28;20386;-76
2022/12/11 17:17:48;;;;;;;0.20;0.10;;;10.90;99.90;;;;;;20951375;28;20421;-75
2022/12/11 17:27:53;;;;;;;0.20;0.00;;;10.80;99.90;;;;;;20908302;28;20808;-75
2022/12/11 17:37:58;;;;;;;0.20;0.10;;;10.80;99.90;;;;;;20911028;28;20410;-72
2022/12/11 17:48:03;;;;;;;0.20;0.10;;;10.70;99.90;;;;;;20934120;28;20406;-75
2022/12/11 17:58:07;;;;;;;0.20;0.10;;;10.70;99.90;;;;;;20935092;28;20885;-74
2022/12/11 18:08:14;;;;;;;0.20;0.10;;;10.70;99.90;;;;;;20960905;28;20853;-73
2022/12/11 18:18:18;;;;;;;0.20;0.10;;;10.90;99.90;;;;;;20962676;28;20442;-74
2022/12/11 18:28:23;;;;;;;0.20;0.10;;;10.80;99.90;;;;;;20961136;28;20421;-73
2022/12/11 18:38:28;;;;;;;0.20;0.10;;;10.80;99.90;;;;;;20958600;28;20405;-74
2022/12/11 18:48:33;;;;;;;0.20;0.10;;;10.70;99.90;;;;;;20951134;28;20405;-73
2022/12/11 18:58:37;;;;;;;0.20;0.10;;;10.80;99.90;;;;;;20955896;28;20410;-73
2022/12/11 19:08:42;;;;;;;0.20;0.10;;;10.90;99.90;;;;;;20950584;28;20429;-73
2022/12/11 19:18:46;;;;;;;0.20;0.10;;;11.10;99.90;;;;;;20941744;28;20863;-75
2022/12/11 19:28:52;;;;;;;0.20;0.10;;;10.90;99.90;;;;;;20924294;28;20398;-74
2022/12/11 19:38:57;;;;;;;0.20;0.10;;;10.80;99.90;;;;;;20940540;28;20437;-74
2022/12/11 19:49:06;;;;;;;0.20;0.10;;;10.90;99.90;;;;;;20941601;28;20929;-72
2022/12/11 19:59:14;;;;;;;0.20;0.10;;;11.00;99.90;;;;;;20957567;28;20472;-74
2022/12/11 20:09:19;;;;;;;0.20;0.10;;;11.00;99.90;;;;;;20938757;28;20398;-71
2022/12/11 20:19:24;;;;;;;0.20;0.10;;;10.70;99.90;;;;;;20939239;28;21259;-73
2022/12/11 20:29:29;;;;;;;0.20;0.10;;;10.70;99.90;;;;;;20938393;28;20386;-74
2022/12/11 20:39:34;;;;;;;0.20;0.10;;;10.80;99.90;;;;;;20937863;28;20477;-74
2022/12/11 20:49:40;;;;;;;0.20;0.10;;;10.50;99.90;;;;;;20859205;28;20400;-73
2022/12/11 20:59:44;;;;;;;0.20;0.10;;;10.40;99.90;;;;;;20856197;28;20407;-75
2022/12/11 21:09:49;;;;;;;0.20;0.10;;;10.30;99.90;;;;;;20856402;28;20757;-74
2022/12/11 21:19:53;;;;;;;0.20;0.08;;;10.30;99.90;;;;;;20904309;28;20896;-73
2022/12/11 21:29:58;;;;;;;0.20;0.10;;;10.20;99.90;;;;;;20936516;28;20412;-73
2022/12/11 21:40:02;;;;;;;0.20;0.10;;;10.20;99.90;;;;;;20934488;28;20418;-76
2022/12/11 21:50:08;;;;;;;0.20;0.00;;;10.20;99.90;;;;;;20852755;28;20404;-74
2022/12/11 22:00:13;;;;;;;0.20;0.10;;;10.30;99.90;;;;;;20848590;28;20903;-76
2022/12/11 22:10:18;;;;;;;0.20;0.10;;;10.20;99.90;;;;;;20851732;28;20404;-76
2022/12/11 22:20:22;;;;;;;0.20;0.10;;;10.00;99.90;;;;;;20854907;28;20419;-74
2022/12/11 22:30:27;;;;;;;0.20;0.10;;;9.90;99.90;;;;;;20857834;28;20429;-75
2022/12/11 22:40:31;;;;;;;0.20;0.10;;;9.90;99.90;;;;;;20857983;28;20415;-74
2022/12/11 22:50:39;;;;;;;0.20;0.10;;;9.90;99.90;;;;;;20953163;28;20410;-73
2022/12/11 23:00:43;;;;;;;0.20;0.10;;;10.00;99.90;;;;;;20954161;28;20409;-74
2022/12/11 23:10:53;;;;;;;0.20;0.10;;;9.90;99.90;;;;;;20952854;28;20507;-74
2022/12/11 23:20:57;;;;;;;0.20;0.10;;;9.90;99.90;;;;;;20953633;28;20417;-74
2022/12/11 23:31:02;;;;;;;0.20;0.10;;;9.80;99.90;;;;;;20950060;28;20406;-74
2022/12/11 23:41:08;;;;;;;0.20;0.10;;;9.90;99.90;;;;;;20950170;28;21398;-73
2022/12/11 23:51:16;;;;;;;0.20;0.10;;;9.90;99.90;;;;;;20947374;28;20402;-74
